Elkton, Oregon
Current Conditions -  °F | °C
As of 8:53 PM on Friday 28 Nov 2014 (Local Time) from KRBG Reporting Station
Heavy Rain Heavy Rain  
Wind Chill: 53°   Ceiling: 4900
Heat Index: 53°   Visibility: 2.5mi
Dew Point: 50°   Wind: 0mph
Humidity: 89%   Direction: NA
Pressure: 29.62"   Gusts: NA
Location:  43.64°N, 123.57°W
Report Text: KRBG 290453Z AUTO 00000KT 2 1/2SM +RA BR SCT038 OVC049 12/10 A2962 RMK AO2 SLP032 P0020 T01170100 TSNO
Loading
Personal Weather Stations






























Interactive Weather Map New forecast layout! Learn more

10-Day Weather Forecast

Advertisements
Track Severe Weather on mobile